createdAt,value
2022-11-23T00:02:46.820Z,11.60
2022-11-23T00:05:49.162Z,11.60
2022-11-23T00:08:52.505Z,11.60
2022-11-23T00:11:57.763Z,11.60
2022-11-23T00:15:00.360Z,11.60
2022-11-23T00:18:02.838Z,11.60
2022-11-23T00:21:18.766Z,11.60
2022-11-23T00:24:21.173Z,11.60
2022-11-23T00:27:23.352Z,11.60
2022-11-23T00:30:26.101Z,11.60
2022-11-23T00:33:28.515Z,11.60
2022-11-23T00:36:30.840Z,11.60
2022-11-23T00:39:35.515Z,11.50
2022-11-23T00:42:38.401Z,11.60
2022-11-23T00:45:40.623Z,11.60
2022-11-23T00:48:44.128Z,11.60
2022-11-23T00:51:46.403Z,11.60
2022-11-23T00:54:48.690Z,11.60
2022-11-23T00:57:50.894Z,11.50
2022-11-23T01:01:01.866Z,11.60
2022-11-23T01:04:06.374Z,11.60
2022-11-23T01:07:08.554Z,11.60
2022-11-23T01:10:10.905Z,11.50
2022-11-23T01:13:15.936Z,11.60
2022-11-23T01:16:24.463Z,11.50
2022-11-23T01:23:04.079Z,11.50
2022-11-23T01:26:10.598Z,11.50
2022-11-23T01:29:13.281Z,11.50
2022-11-23T01:32:16.706Z,11.50
2022-11-23T01:35:21.732Z,11.50
2022-11-23T01:38:23.885Z,11.50
2022-11-23T01:41:31.996Z,11.50
2022-11-23T01:44:36.644Z,11.50
2022-11-23T01:47:38.819Z,11.50
2022-11-23T01:50:42.751Z,11.50
2022-11-23T01:53:46.451Z,11.50
2022-11-23T01:56:54.474Z,11.50
2022-11-23T01:59:57.429Z,11.50
2022-11-23T02:03:01.218Z,11.50
2022-11-23T02:06:08.431Z,11.50
2022-11-23T02:09:14.043Z,11.50
2022-11-23T02:12:17.241Z,11.50
2022-11-23T02:15:19.472Z,11.50
2022-11-23T02:18:30.463Z,11.50
2022-11-23T02:21:32.726Z,11.50
2022-11-23T02:24:41.506Z,11.50
2022-11-23T02:27:47.244Z,11.50
2022-11-23T02:30:51.943Z,11.50
2022-11-23T02:33:58.257Z,11.50
2022-11-23T02:37:01.076Z,11.50
2022-11-23T02:40:32.411Z,11.50
2022-11-23T02:43:34.692Z,11.50
2022-11-23T02:46:36.902Z,11.50
2022-11-23T02:49:41.810Z,11.50
2022-11-23T02:52:44.011Z,11.50
2022-11-23T02:55:46.225Z,11.50
2022-11-23T02:58:48.385Z,11.50
2022-11-23T03:01:50.806Z,11.50
2022-11-23T03:04:53.076Z,11.50
2022-11-23T03:07:55.815Z,11.50
2022-11-23T03:10:58.043Z,11.50
2022-11-23T03:14:00.692Z,11.50
2022-11-23T03:17:05.294Z,11.50
2022-11-23T03:20:12.909Z,11.50
2022-11-23T03:23:18.592Z,11.50
2022-11-23T03:26:20.792Z,11.50
2022-11-23T03:29:34.998Z,11.50
2022-11-23T03:32:44.023Z,11.50
2022-11-23T03:35:47.359Z,11.50
2022-11-23T03:38:58.666Z,11.50
2022-11-23T03:42:19.559Z,11.50
2022-11-23T03:45:22.176Z,11.50
2022-11-23T03:48:24.907Z,11.50
2022-11-23T03:51:27.942Z,11.40
2022-11-23T03:54:30.511Z,11.40
2022-11-23T03:57:32.724Z,11.40
2022-11-23T04:00:37.523Z,11.50
2022-11-23T04:03:40.070Z,11.40
2022-11-23T04:06:55.309Z,11.40
2022-11-23T04:10:01.944Z,11.40
2022-11-23T04:13:24.683Z,11.40
2022-11-23T04:16:27.571Z,11.40
2022-11-23T04:19:30.838Z,11.40
2022-11-23T04:22:33.651Z,11.40
2022-11-23T04:25:36.404Z,11.40
2022-11-23T04:28:38.677Z,11.40
2022-11-23T04:31:41.073Z,11.40
2022-11-23T04:34:47.594Z,11.40
2022-11-23T04:37:50.127Z,11.40
2022-11-23T04:40:53.191Z,11.40
2022-11-23T04:43:55.759Z,11.40
2022-11-23T04:46:59.235Z,11.40
2022-11-23T04:50:01.992Z,11.40
2022-11-23T04:53:05.902Z,11.40
2022-11-23T04:56:21.567Z,11.40
2022-11-23T04:59:25.188Z,11.40
2022-11-23T05:02:27.675Z,11.40
2022-11-23T05:05:44.894Z,11.40
2022-11-23T05:08:47.217Z,11.40
2022-11-23T05:12:14.374Z,11.40
2022-11-23T05:15:16.707Z,11.40
2022-11-23T05:18:20.485Z,11.40
2022-11-23T05:21:24.307Z,11.30
2022-11-23T05:24:27.283Z,11.30
2022-11-23T05:27:42.544Z,11.30
2022-11-23T05:30:44.894Z,11.30
2022-11-23T05:33:47.123Z,11.30
2022-11-23T05:36:51.600Z,11.30
2022-11-23T05:39:54.409Z,11.30
2022-11-23T05:42:59.491Z,11.30
2022-11-23T05:46:02.416Z,11.30
2022-11-23T05:49:07.945Z,11.30
2022-11-23T05:52:13.096Z,11.30
2022-11-23T05:55:15.528Z,11.30
2022-11-23T05:58:17.723Z,11.30
2022-11-23T06:01:19.977Z,11.30
2022-11-23T06:04:23.417Z,11.30
2022-11-23T06:07:25.711Z,11.30
2022-11-23T06:10:38.365Z,11.30
2022-11-23T06:13:40.547Z,11.30
2022-11-23T06:16:43.122Z,11.30
2022-11-23T06:20:09.790Z,11.30
2022-11-23T06:23:17.030Z,11.20
2022-11-23T06:26:19.338Z,11.30
2022-11-23T06:33:03.986Z,11.30
2022-11-23T06:36:11.354Z,11.20
2022-11-23T06:39:19.459Z,11.20
2022-11-23T06:42:38.427Z,11.30
2022-11-23T06:45:45.892Z,11.20
2022-11-23T06:48:50.302Z,11.20
2022-11-23T06:51:52.632Z,11.20
2022-11-23T06:54:55.150Z,11.20
2022-11-23T06:57:59.540Z,11.20
2022-11-23T07:01:03.860Z,11.20
2022-11-23T07:04:11.249Z,11.20
2022-11-23T07:07:21.280Z,11.20
2022-11-23T07:10:33.060Z,11.20
2022-11-23T07:13:36.508Z,11.20
2022-11-23T07:16:38.704Z,11.20
2022-11-23T07:19:41.370Z,11.20
2022-11-23T07:22:43.764Z,11.20
2022-11-23T07:25:46.538Z,11.20
2022-11-23T07:28:48.982Z,11.20
2022-11-23T07:31:51.533Z,11.20
2022-11-23T07:34:55.480Z,11.20
2022-11-23T07:37:58.215Z,11.10
2022-11-23T07:41:01.848Z,11.10
2022-11-23T07:44:30.030Z,11.10
2022-11-23T07:47:32.935Z,11.10
2022-11-23T07:50:36.897Z,11.10
2022-11-23T07:53:39.325Z,11.10
2022-11-23T07:56:41.520Z,11.10
2022-11-23T07:59:43.794Z,11.10
2022-11-23T08:03:11.296Z,11.10
2022-11-23T08:06:13.115Z,11.10
2022-11-23T08:09:15.431Z,11.10
2022-11-23T08:12:17.675Z,11.10
2022-11-23T08:15:19.910Z,11.10
2022-11-23T08:18:22.813Z,11.10
2022-11-23T08:21:25.033Z,11.10
2022-11-23T08:24:27.363Z,11.10
2022-11-23T08:27:29.601Z,11.10
2022-11-23T08:30:33.458Z,11.10
2022-11-23T08:33:35.683Z,11.10
2022-11-23T08:36:38.217Z,11.00
2022-11-23T08:39:40.426Z,11.10
2022-11-23T08:42:42.692Z,11.10
2022-11-23T08:45:44.910Z,11.10
2022-11-23T08:48:47.591Z,11.10
2022-11-23T08:51:50.414Z,11.10
2022-11-23T08:54:52.886Z,11.10
2022-11-23T08:57:56.401Z,11.10
2022-11-23T09:00:58.893Z,11.10
2022-11-23T09:04:02.090Z,11.10
2022-11-23T09:07:04.381Z,11.10
2022-11-23T09:10:07.328Z,11.10
2022-11-23T09:13:09.626Z,11.10
2022-11-23T09:16:11.865Z,11.00
2022-11-23T09:19:14.747Z,11.00
2022-11-23T09:22:16.956Z,11.00
2022-11-23T09:25:19.524Z,11.10
2022-11-23T09:28:22.722Z,11.00
2022-11-23T09:31:26.985Z,11.00
2022-11-23T09:34:29.197Z,11.00
2022-11-23T09:37:31.483Z,11.00
2022-11-23T09:40:36.812Z,11.00
2022-11-23T09:44:22.113Z,11.00
2022-11-23T09:48:02.531Z,11.00
2022-11-23T09:51:16.594Z,11.00
2022-11-23T09:54:36.487Z,11.00
2022-11-23T09:57:42.540Z,11.00
2022-11-23T10:00:50.772Z,11.00
2022-11-23T10:03:53.319Z,11.00
2022-11-23T10:07:03.282Z,11.00
2022-11-23T10:10:38.458Z,11.00
2022-11-23T10:13:45.754Z,11.00
2022-11-23T10:17:15.830Z,11.00
2022-11-23T10:20:31.908Z,11.00
2022-11-23T10:23:45.430Z,11.00
2022-11-23T10:26:50.223Z,11.00
2022-11-23T10:29:56.659Z,11.00
2022-11-23T10:33:12.072Z,11.00
2022-11-23T10:36:14.186Z,11.00
2022-11-23T10:39:26.109Z,11.00
2022-11-23T10:42:38.769Z,11.00
2022-11-23T10:45:40.970Z,11.00
2022-11-23T10:48:45.039Z,11.00
2022-11-23T10:51:54.928Z,11.00
2022-11-23T10:55:00.462Z,11.00
2022-11-23T10:58:02.643Z,11.00
2022-11-23T11:01:11.805Z,11.00
2022-11-23T11:04:23.187Z,11.00
2022-11-23T11:07:30.019Z,11.00
2022-11-23T11:10:42.840Z,11.00
2022-11-23T11:13:47.810Z,11.00
2022-11-23T11:16:52.370Z,11.00
2022-11-23T11:19:55.328Z,11.00
2022-11-23T11:23:21.624Z,11.00
2022-11-23T11:26:26.147Z,11.00
2022-11-23T11:29:50.387Z,11.00
2022-11-23T11:33:00.435Z,11.00
2022-11-23T11:36:05.800Z,11.00
2022-11-23T11:39:19.652Z,11.00
2022-11-23T11:42:35.391Z,11.00
2022-11-23T11:46:21.457Z,11.00
2022-11-23T11:49:20.980Z,11.00
2022-11-23T11:52:28.976Z,11.00
2022-11-23T11:55:47.058Z,11.00
2022-11-23T11:59:05.856Z,11.00
2022-11-23T12:02:07.976Z,11.00
2022-11-23T12:05:17.946Z,11.00
2022-11-23T12:08:45.813Z,11.00
2022-11-23T12:11:48.035Z,11.10
2022-11-23T12:14:50.516Z,11.00
2022-11-23T12:18:22.329Z,11.00
2022-11-23T12:21:54.315Z,11.00
2022-11-23T12:25:00.768Z,11.00
2022-11-23T12:28:13.814Z,11.00
2022-11-23T12:31:54.313Z,11.00
2022-11-23T12:35:14.655Z,11.00
2022-11-23T12:38:41.616Z,11.00
2022-11-23T12:42:12.780Z,11.00
2022-11-23T12:45:51.452Z,11.00
2022-11-23T12:49:15.773Z,11.00
2022-11-23T12:52:49.052Z,11.00
2022-11-23T12:56:06.469Z,11.00
2022-11-23T12:59:13.231Z,11.00
2022-11-23T13:02:54.120Z,11.00
2022-11-23T13:06:12.102Z,11.00
2022-11-23T13:09:47.211Z,11.00
2022-11-23T13:13:04.613Z,11.00
2022-11-23T13:16:44.578Z,11.00
2022-11-23T13:20:15.230Z,11.00
2022-11-23T13:23:21.857Z,11.00
2022-11-23T13:26:28.802Z,11.10
2022-11-23T13:29:53.354Z,11.00
2022-11-23T13:32:57.704Z,11.00
2022-11-23T13:36:07.142Z,11.00
2022-11-23T13:39:49.511Z,11.00
2022-11-23T13:42:53.129Z,11.00
2022-11-23T13:46:10.773Z,11.00
2022-11-23T13:49:32.867Z,11.00
2022-11-23T13:52:36.960Z,11.00
2022-11-23T13:55:39.645Z,11.00
2022-11-23T13:59:09.142Z,11.00
2022-11-23T14:02:11.306Z,11.10
2022-11-23T14:05:48.687Z,11.10
2022-11-23T14:08:58.991Z,11.00
2022-11-23T14:12:06.962Z,11.10
2022-11-23T14:15:19.418Z,11.10
2022-11-23T14:18:25.457Z,11.00
2022-11-23T14:22:06.211Z,11.00
2022-11-23T14:25:24.009Z,11.10
2022-11-23T14:28:45.037Z,11.00
2022-11-23T14:31:53.123Z,11.00
2022-11-23T14:35:01.632Z,11.10
2022-11-23T14:38:12.792Z,11.00
2022-11-23T14:41:26.317Z,11.00
2022-11-23T14:44:34.111Z,11.00
2022-11-23T14:47:39.436Z,11.10
2022-11-23T14:50:41.668Z,11.10
2022-11-23T14:53:50.200Z,11.00
2022-11-23T14:57:03.638Z,11.10
2022-11-23T15:00:11.674Z,11.10
2022-11-23T15:06:47.715Z,11.10
2022-11-23T15:10:08.437Z,11.10
2022-11-23T15:13:21.542Z,11.10
2022-11-23T15:16:23.922Z,11.10
2022-11-23T15:19:29.973Z,11.10
2022-11-23T15:22:36.202Z,11.10
2022-11-23T15:25:38.488Z,11.10
2022-11-23T15:28:40.771Z,11.10
2022-11-23T15:32:00.451Z,11.00
2022-11-23T15:35:13.115Z,11.10
2022-11-23T15:38:23.207Z,11.10
2022-11-23T15:41:27.972Z,11.10
2022-11-23T15:44:32.854Z,11.10
2022-11-23T15:47:38.236Z,11.10
2022-11-23T15:50:48.961Z,11.10
2022-11-23T15:53:53.401Z,11.10
2022-11-23T15:56:58.715Z,11.10
2022-11-23T16:00:04.283Z,11.10
2022-11-23T16:03:34.704Z,11.10
2022-11-23T16:06:47.946Z,11.10
2022-11-23T16:10:11.770Z,11.10
2022-11-23T16:13:35.190Z,11.10
2022-11-23T16:16:42.709Z,11.10
2022-11-23T16:19:48.674Z,11.10
2022-11-23T16:22:52.733Z,11.10
2022-11-23T16:26:01.503Z,11.10
2022-11-23T16:29:05.366Z,11.10
2022-11-23T16:32:22.723Z,11.10
2022-11-23T16:35:24.911Z,11.10
2022-11-23T16:38:27.137Z,11.10
2022-11-23T16:41:29.385Z,11.10
2022-11-23T16:44:32.722Z,11.10
2022-11-23T16:47:50.480Z,11.10
2022-11-23T16:50:53.971Z,11.10
2022-11-23T16:54:15.266Z,11.10
2022-11-23T16:57:29.522Z,11.10
2022-11-23T17:00:33.993Z,11.10
2022-11-23T17:03:41.313Z,11.10
2022-11-23T17:06:44.487Z,11.10
2022-11-23T17:09:47.059Z,11.10
2022-11-23T17:12:54.331Z,11.10
2022-11-23T17:15:56.784Z,11.10
2022-11-23T17:18:59.003Z,11.10
2022-11-23T17:22:01.642Z,11.10
2022-11-23T17:25:04.112Z,11.10
2022-11-23T17:28:14.447Z,11.10
2022-11-23T17:31:16.614Z,11.10
2022-11-23T17:34:19.072Z,11.10
2022-11-23T17:37:24.043Z,11.10
2022-11-23T17:40:27.408Z,11.10
2022-11-23T17:43:29.951Z,11.10
2022-11-23T17:46:33.784Z,11.10
2022-11-23T17:49:36.281Z,11.10
2022-11-23T17:52:42.224Z,11.10
2022-11-23T17:55:44.466Z,11.10
2022-11-23T17:58:47.252Z,11.10
2022-11-23T18:01:49.635Z,11.10
2022-11-23T18:04:51.978Z,11.10
2022-11-23T18:07:54.462Z,11.10
2022-11-23T18:10:59.198Z,11.10
2022-11-23T18:14:03.345Z,11.10
2022-11-23T18:17:05.580Z,11.10
2022-11-23T18:20:08.513Z,11.10
2022-11-23T18:23:11.358Z,11.10
2022-11-23T18:26:18.365Z,11.10
2022-11-23T18:29:20.581Z,11.10
2022-11-23T18:32:22.799Z,11.10
2022-11-23T18:35:24.953Z,11.10
2022-11-23T18:38:27.109Z,11.10
2022-11-23T18:41:29.304Z,11.10
2022-11-23T18:44:31.417Z,11.10
2022-11-23T18:47:33.821Z,11.10
2022-11-23T18:50:37.137Z,11.10
2022-11-23T18:53:40.248Z,11.10
2022-11-23T18:56:43.029Z,11.00
2022-11-23T19:00:01.307Z,11.10
2022-11-23T19:03:03.963Z,11.10
2022-11-23T19:06:06.689Z,11.10
2022-11-23T19:09:11.281Z,11.10
2022-11-23T19:12:14.258Z,11.10
2022-11-23T19:15:16.642Z,11.00
2022-11-23T19:18:18.841Z,11.10
2022-11-23T19:21:23.704Z,11.10
2022-11-23T19:24:26.360Z,11.10
2022-11-23T19:27:29.018Z,11.10
2022-11-23T19:30:31.151Z,11.10
2022-11-23T19:33:33.859Z,11.00
2022-11-23T19:36:36.651Z,11.10
2022-11-23T19:39:38.927Z,11.10
2022-11-23T19:42:42.780Z,11.00
2022-11-23T19:45:45.015Z,11.00
2022-11-23T19:48:48.168Z,11.00
2022-11-23T19:51:52.461Z,11.00
2022-11-23T19:54:54.768Z,11.00
2022-11-23T19:57:57.039Z,11.00
2022-11-23T20:01:04.610Z,11.00
2022-11-23T20:04:09.691Z,11.00
2022-11-23T20:07:13.038Z,11.00
2022-11-23T20:10:16.236Z,11.00
2022-11-23T20:13:18.510Z,11.00
2022-11-23T20:16:22.027Z,11.00
2022-11-23T20:19:24.228Z,11.00
2022-11-23T20:22:26.371Z,11.00
2022-11-23T20:25:28.806Z,11.00
2022-11-23T20:28:30.986Z,11.00
2022-11-23T20:31:33.818Z,11.00
2022-11-23T20:34:36.310Z,11.00
2022-11-23T20:37:38.751Z,11.00
2022-11-23T20:40:41.078Z,11.00
2022-11-23T20:43:44.427Z,11.00
2022-11-23T20:47:01.863Z,11.00
2022-11-23T20:50:05.502Z,11.00
2022-11-23T20:53:07.745Z,11.00
2022-11-23T20:56:11.747Z,11.00
2022-11-23T20:59:14.134Z,11.00
2022-11-23T21:02:16.334Z,11.00
2022-11-23T21:05:19.500Z,11.00
2022-11-23T21:08:30.234Z,11.00
2022-11-23T21:11:53.976Z,11.00
2022-11-23T21:14:56.528Z,11.00
2022-11-23T21:17:58.787Z,11.00
2022-11-23T21:21:01.029Z,10.90
2022-11-23T21:24:03.999Z,11.00
2022-11-23T21:27:10.438Z,11.00
2022-11-23T21:30:12.970Z,10.90
2022-11-23T21:33:15.152Z,11.00
2022-11-23T21:36:17.705Z,11.00
2022-11-23T21:39:20.541Z,11.00
2022-11-23T21:42:22.721Z,11.00
2022-11-23T21:45:24.887Z,11.00
2022-11-23T21:48:27.643Z,11.00
2022-11-23T21:51:30.990Z,11.00
2022-11-23T21:54:33.525Z,10.90
2022-11-23T21:57:35.930Z,10.90
2022-11-23T22:00:38.199Z,10.90
2022-11-23T22:03:47.407Z,11.00
2022-11-23T22:06:49.587Z,10.90
2022-11-23T22:09:51.723Z,10.90
2022-11-23T22:12:55.167Z,10.90
2022-11-23T22:15:57.623Z,10.90
2022-11-23T22:19:00.403Z,10.90
2022-11-23T22:22:02.619Z,10.90
2022-11-23T22:25:05.119Z,10.90
2022-11-23T22:28:07.258Z,10.90
2022-11-23T22:31:12.004Z,10.90
2022-11-23T22:34:14.829Z,10.90
2022-11-23T22:37:17.003Z,10.90
2022-11-23T22:40:19.629Z,10.90
2022-11-23T22:43:21.840Z,10.90
2022-11-23T22:46:25.364Z,10.90
2022-11-23T22:49:27.924Z,10.90
2022-11-23T22:52:30.043Z,10.90
2022-11-23T22:55:32.394Z,10.90
2022-11-23T22:58:34.627Z,10.90
2022-11-23T23:01:36.899Z,10.90
2022-11-23T23:04:39.085Z,10.90
2022-11-23T23:07:41.403Z,10.90
2022-11-23T23:10:43.595Z,10.90
2022-11-23T23:13:45.781Z,10.80
2022-11-23T23:16:48.002Z,10.90
2022-11-23T23:19:50.623Z,10.90
2022-11-23T23:22:52.777Z,10.80
2022-11-23T23:25:55.045Z,10.90
2022-11-23T23:28:59.776Z,10.80
2022-11-23T23:32:02.028Z,10.80
2022-11-23T23:35:04.442Z,10.80
2022-11-23T23:38:06.841Z,10.80
2022-11-23T23:41:10.654Z,10.80
2022-11-23T23:44:12.920Z,10.80
2022-11-23T23:47:15.090Z,10.80
2022-11-23T23:50:17.807Z,10.80
2022-11-23T23:53:20.078Z,10.80
2022-11-23T23:56:24.918Z,10.80
2022-11-23T23:59:27.314Z,10.80
